sensor_id;sensor_type;location;lat;lon;timestamp;P1;durP1;ratioP1;P2;durP2;ratioP2
6356;SDS011;3211;53.452;-2.264;2022-09-06T00:02:37;3.10;;;1.30;;
6356;SDS011;3211;53.452;-2.264;2022-09-06T00:05:19;1.77;;;1.30;;
6356;SDS011;3211;53.452;-2.264;2022-09-06T00:08:04;1.87;;;1.10;;
6356;SDS011;3211;53.452;-2.264;2022-09-06T00:10:46;3.50;;;1.80;;
6356;SDS011;3211;53.452;-2.264;2022-09-06T00:13:28;6.60;;;1.67;;
6356;SDS011;3211;53.452;-2.264;2022-09-06T00:16:11;1.20;;;1.10;;
6356;SDS011;3211;53.452;-2.264;2022-09-06T00:18:54;1.40;;;1.20;;
6356;SDS011;3211;53.452;-2.264;2022-09-06T00:21:36;4.97;;;1.23;;
6356;SDS011;3211;53.452;-2.264;2022-09-06T00:24:20;1.50;;;1.30;;
6356;SDS011;3211;53.452;-2.264;2022-09-06T00:27:03;1.23;;;1.10;;
6356;SDS011;3211;53.452;-2.264;2022-09-06T00:29:45;2.63;;;1.50;;
6356;SDS011;3211;53.452;-2.264;2022-09-06T00:32:27;1.83;;;1.23;;
6356;SDS011;3211;53.452;-2.264;2022-09-06T00:35:09;1.50;;;1.40;;
6356;SDS011;3211;53.452;-2.264;2022-09-06T00:37:54;1.50;;;1.40;;
6356;SDS011;3211;53.452;-2.264;2022-09-06T00:40:38;1.27;;;1.17;;
6356;SDS011;3211;53.452;-2.264;2022-09-06T00:43:21;1.20;;;1.10;;
6356;SDS011;3211;53.452;-2.264;2022-09-06T00:46:03;1.40;;;1.30;;
6356;SDS011;3211;53.452;-2.264;2022-09-06T00:48:47;1.30;;;1.20;;
6356;SDS011;3211;53.452;-2.264;2022-09-06T00:51:32;1.43;;;1.30;;
6356;SDS011;3211;53.452;-2.264;2022-09-06T00:54:15;1.93;;;1.43;;
6356;SDS011;3211;53.452;-2.264;2022-09-06T00:56:59;1.77;;;1.67;;
6356;SDS011;3211;53.452;-2.264;2022-09-06T00:59:42;1.27;;;1.17;;
6356;SDS011;3211;53.452;-2.264;2022-09-06T01:02:26;1.30;;;1.20;;
6356;SDS011;3211;53.452;-2.264;2022-09-06T01:05:08;1.30;;;1.20;;
6356;SDS011;3211;53.452;-2.264;2022-09-06T01:07:55;1.30;;;1.20;;
6356;SDS011;3211;53.452;-2.264;2022-09-06T01:10:49;3.47;;;1.33;;
6356;SDS011;3211;53.452;-2.264;2022-09-06T01:13:49;1.57;;;1.47;;
6356;SDS011;3211;53.452;-2.264;2022-09-06T01:16:37;2.70;;;1.50;;
6356;SDS011;3211;53.452;-2.264;2022-09-06T01:19:39;1.30;;;1.20;;
6356;SDS011;3211;53.452;-2.264;2022-09-06T01:22:45;2.00;;;1.60;;
6356;SDS011;3211;53.452;-2.264;2022-09-06T01:25:52;2.13;;;1.70;;
6356;SDS011;3211;53.452;-2.264;2022-09-06T01:28:46;2.70;;;1.80;;
6356;SDS011;3211;53.452;-2.264;2022-09-06T01:31:30;1.90;;;1.50;;
6356;SDS011;3211;53.452;-2.264;2022-09-06T01:34:18;1.83;;;1.67;;
6356;SDS011;3211;53.452;-2.264;2022-09-06T01:37:04;1.70;;;1.60;;
6356;SDS011;3211;53.452;-2.264;2022-09-06T01:39:51;2.10;;;1.80;;
6356;SDS011;3211;53.452;-2.264;2022-09-06T01:42:33;2.63;;;1.70;;
6356;SDS011;3211;53.452;-2.264;2022-09-06T01:45:19;2.63;;;2.37;;
6356;SDS011;3211;53.452;-2.264;2022-09-06T01:48:08;3.10;;;2.27;;
6356;SDS011;3211;53.452;-2.264;2022-09-06T01:50:58;1.70;;;1.60;;
6356;SDS011;3211;53.452;-2.264;2022-09-06T01:53:54;1.67;;;1.53;;
6356;SDS011;3211;53.452;-2.264;2022-09-06T01:56:48;1.53;;;1.43;;
6356;SDS011;3211;53.452;-2.264;2022-09-06T01:59:40;1.60;;;1.50;;
6356;SDS011;3211;53.452;-2.264;2022-09-06T02:02:34;6.57;;;1.83;;
6356;SDS011;3211;53.452;-2.264;2022-09-06T02:05:23;1.90;;;1.70;;
6356;SDS011;3211;53.452;-2.264;2022-09-06T02:08:09;2.80;;;1.60;;
6356;SDS011;3211;53.452;-2.264;2022-09-06T02:10:57;1.97;;;1.70;;
6356;SDS011;3211;53.452;-2.264;2022-09-06T02:13:42;2.23;;;1.80;;
6356;SDS011;3211;53.452;-2.264;2022-09-06T02:16:27;3.27;;;2.10;;
6356;SDS011;3211;53.452;-2.264;2022-09-06T02:19:15;1.60;;;1.50;;
6356;SDS011;3211;53.452;-2.264;2022-09-06T02:22:02;1.83;;;1.60;;
6356;SDS011;3211;53.452;-2.264;2022-09-06T02:24:49;3.90;;;1.63;;
6356;SDS011;3211;53.452;-2.264;2022-09-06T02:27:33;1.77;;;1.40;;
6356;SDS011;3211;53.452;-2.264;2022-09-06T02:30:16;2.50;;;1.67;;
6356;SDS011;3211;53.452;-2.264;2022-09-06T02:33:01;1.60;;;1.50;;
6356;SDS011;3211;53.452;-2.264;2022-09-06T02:35:47;1.70;;;1.60;;
6356;SDS011;3211;53.452;-2.264;2022-09-06T02:38:31;2.37;;;1.70;;
6356;SDS011;3211;53.452;-2.264;2022-09-06T02:41:17;1.70;;;1.60;;
6356;SDS011;3211;53.452;-2.264;2022-09-06T02:44:03;2.27;;;1.90;;
6356;SDS011;3211;53.452;-2.264;2022-09-06T02:46:45;1.93;;;1.80;;
6356;SDS011;3211;53.452;-2.264;2022-09-06T02:49:27;2.37;;;1.80;;
6356;SDS011;3211;53.452;-2.264;2022-09-06T02:52:10;1.77;;;1.63;;
6356;SDS011;3211;53.452;-2.264;2022-09-06T02:54:52;2.20;;;1.63;;
6356;SDS011;3211;53.452;-2.264;2022-09-06T02:57:34;2.67;;;1.63;;
6356;SDS011;3211;53.452;-2.264;2022-09-06T03:00:16;4.67;;;1.60;;
6356;SDS011;3211;53.452;-2.264;2022-09-06T03:02:58;2.90;;;2.20;;
6356;SDS011;3211;53.452;-2.264;2022-09-06T03:05:41;1.87;;;1.70;;
6356;SDS011;3211;53.452;-2.264;2022-09-06T03:08:28;2.03;;;1.70;;
6356;SDS011;3211;53.452;-2.264;2022-09-06T03:11:12;2.07;;;1.50;;
6356;SDS011;3211;53.452;-2.264;2022-09-06T03:13:54;2.17;;;1.70;;
6356;SDS011;3211;53.452;-2.264;2022-09-06T03:16:36;2.57;;;2.00;;
6356;SDS011;3211;53.452;-2.264;2022-09-06T03:19:18;2.90;;;1.70;;
6356;SDS011;3211;53.452;-2.264;2022-09-06T03:22:00;1.70;;;1.40;;
6356;SDS011;3211;53.452;-2.264;2022-09-06T03:24:44;2.33;;;1.60;;
6356;SDS011;3211;53.452;-2.264;2022-09-06T03:27:26;1.53;;;1.43;;
6356;SDS011;3211;53.452;-2.264;2022-09-06T03:30:08;2.17;;;1.50;;
6356;SDS011;3211;53.452;-2.264;2022-09-06T03:32:51;1.60;;;1.50;;
6356;SDS011;3211;53.452;-2.264;2022-09-06T03:35:33;1.43;;;1.30;;
6356;SDS011;3211;53.452;-2.264;2022-09-06T03:38:15;1.37;;;1.27;;
6356;SDS011;3211;53.452;-2.264;2022-09-06T03:40:59;3.83;;;1.53;;
6356;SDS011;3211;53.452;-2.264;2022-09-06T03:43:41;1.93;;;1.30;;
6356;SDS011;3211;53.452;-2.264;2022-09-06T03:46:23;4.50;;;1.40;;
6356;SDS011;3211;53.452;-2.264;2022-09-06T03:49:05;1.83;;;1.50;;
6356;SDS011;3211;53.452;-2.264;2022-09-06T03:51:49;2.23;;;1.30;;
6356;SDS011;3211;53.452;-2.264;2022-09-06T03:54:31;1.43;;;1.30;;
6356;SDS011;3211;53.452;-2.264;2022-09-06T03:57:14;1.40;;;1.30;;
6356;SDS011;3211;53.452;-2.264;2022-09-06T03:59:56;1.60;;;1.30;;
6356;SDS011;3211;53.452;-2.264;2022-09-06T04:02:38;1.70;;;1.20;;
6356;SDS011;3211;53.452;-2.264;2022-09-06T04:05:20;1.97;;;1.20;;
6356;SDS011;3211;53.452;-2.264;2022-09-06T04:08:02;1.30;;;1.20;;
6356;SDS011;3211;53.452;-2.264;2022-09-06T04:10:48;2.03;;;1.20;;
6356;SDS011;3211;53.452;-2.264;2022-09-06T04:13:31;1.43;;;1.20;;
6356;SDS011;3211;53.452;-2.264;2022-09-06T04:16:14;1.40;;;1.20;;
6356;SDS011;3211;53.452;-2.264;2022-09-06T04:18:57;1.70;;;1.30;;
6356;SDS011;3211;53.452;-2.264;2022-09-06T04:21:40;1.30;;;1.20;;
6356;SDS011;3211;53.452;-2.264;2022-09-06T04:24:22;1.40;;;1.20;;
6356;SDS011;3211;53.452;-2.264;2022-09-06T04:27:04;1.83;;;1.23;;
6356;SDS011;3211;53.452;-2.264;2022-09-06T04:29:48;1.53;;;1.10;;
6356;SDS011;3211;53.452;-2.264;2022-09-06T04:32:30;3.10;;;1.20;;
6356;SDS011;3211;53.452;-2.264;2022-09-06T04:35:12;2.90;;;1.40;;
6356;SDS011;3211;53.452;-2.264;2022-09-06T04:37:54;1.30;;;1.20;;
6356;SDS011;3211;53.452;-2.264;2022-09-06T04:40:36;2.37;;;1.30;;
6356;SDS011;3211;53.452;-2.264;2022-09-06T04:43:18;1.87;;;1.33;;
6356;SDS011;3211;53.452;-2.264;2022-09-06T04:46:05;1.97;;;1.60;;
6356;SDS011;3211;53.452;-2.264;2022-09-06T04:48:50;1.50;;;1.40;;
6356;SDS011;3211;53.452;-2.264;2022-09-06T04:51:33;1.53;;;1.30;;
6356;SDS011;3211;53.452;-2.264;2022-09-06T04:54:16;1.50;;;1.40;;
6356;SDS011;3211;53.452;-2.264;2022-09-06T04:56:58;4.03;;;1.50;;
6356;SDS011;3211;53.452;-2.264;2022-09-06T04:59:40;2.70;;;1.50;;
6356;SDS011;3211;53.452;-2.264;2022-09-06T05:02:23;2.43;;;1.73;;
6356;SDS011;3211;53.452;-2.264;2022-09-06T05:05:05;2.00;;;1.60;;
6356;SDS011;3211;53.452;-2.264;2022-09-06T05:07:50;2.30;;;1.80;;
6356;SDS011;3211;53.452;-2.264;2022-09-06T05:10:32;2.03;;;1.70;;
6356;SDS011;3211;53.452;-2.264;2022-09-06T05:13:14;3.13;;;1.70;;
6356;SDS011;3211;53.452;-2.264;2022-09-06T05:15:58;1.90;;;1.80;;
6356;SDS011;3211;53.452;-2.264;2022-09-06T05:18:42;1.70;;;1.60;;
6356;SDS011;3211;53.452;-2.264;2022-09-06T05:21:24;1.80;;;1.70;;
6356;SDS011;3211;53.452;-2.264;2022-09-06T05:24:06;5.00;;;1.60;;
6356;SDS011;3211;53.452;-2.264;2022-09-06T05:26:48;3.20;;;1.80;;
6356;SDS011;3211;53.452;-2.264;2022-09-06T05:29:30;2.50;;;1.80;;
6356;SDS011;3211;53.452;-2.264;2022-09-06T05:32:12;1.83;;;1.73;;
6356;SDS011;3211;53.452;-2.264;2022-09-06T05:34:55;2.17;;;1.97;;
6356;SDS011;3211;53.452;-2.264;2022-09-06T05:37:37;2.53;;;2.33;;
6356;SDS011;3211;53.452;-2.264;2022-09-06T05:40:19;2.50;;;2.30;;
6356;SDS011;3211;53.452;-2.264;2022-09-06T05:43:01;3.73;;;2.33;;
6356;SDS011;3211;53.452;-2.264;2022-09-06T05:45:43;3.53;;;2.83;;
6356;SDS011;3211;53.452;-2.264;2022-09-06T05:48:25;3.23;;;2.87;;
6356;SDS011;3211;53.452;-2.264;2022-09-06T05:51:10;4.17;;;2.73;;
6356;SDS011;3211;53.452;-2.264;2022-09-06T05:53:53;4.80;;;3.27;;
6356;SDS011;3211;53.452;-2.264;2022-09-06T05:56:35;6.90;;;3.47;;
6356;SDS011;3211;53.452;-2.264;2022-09-06T05:59:17;3.67;;;3.13;;
6356;SDS011;3211;53.452;-2.264;2022-09-06T06:01:59;3.33;;;3.00;;
6356;SDS011;3211;53.452;-2.264;2022-09-06T06:04:41;3.47;;;3.17;;
6356;SDS011;3211;53.452;-2.264;2022-09-06T06:07:24;3.83;;;3.53;;
6356;SDS011;3211;53.452;-2.264;2022-09-06T06:10:06;4.77;;;4.07;;
6356;SDS011;3211;53.452;-2.264;2022-09-06T06:12:49;10.10;;;3.90;;
6356;SDS011;3211;53.452;-2.264;2022-09-06T06:15:31;3.60;;;3.30;;
6356;SDS011;3211;53.452;-2.264;2022-09-06T06:18:13;6.73;;;4.00;;
6356;SDS011;3211;53.452;-2.264;2022-09-06T06:21:05;6.70;;;4.63;;
6356;SDS011;3211;53.452;-2.264;2022-09-06T06:23:51;5.07;;;4.57;;
6356;SDS011;3211;53.452;-2.264;2022-09-06T06:26:35;7.97;;;5.30;;
6356;SDS011;3211;53.452;-2.264;2022-09-06T06:29:17;5.70;;;4.83;;
6356;SDS011;3211;53.452;-2.264;2022-09-06T06:31:59;5.83;;;5.23;;
6356;SDS011;3211;53.452;-2.264;2022-09-06T06:34:41;7.77;;;6.03;;
6356;SDS011;3211;53.452;-2.264;2022-09-06T06:37:23;6.23;;;5.60;;
6356;SDS011;3211;53.452;-2.264;2022-09-06T06:40:07;9.30;;;5.87;;
6356;SDS011;3211;53.452;-2.264;2022-09-06T06:42:49;7.93;;;6.43;;
6356;SDS011;3211;53.452;-2.264;2022-09-06T06:45:31;9.97;;;7.20;;
6356;SDS011;3211;53.452;-2.264;2022-09-06T06:48:13;8.53;;;6.67;;
6356;SDS011;3211;53.452;-2.264;2022-09-06T06:50:55;14.97;;;8.50;;
6356;SDS011;3211;53.452;-2.264;2022-09-06T06:53:37;13.03;;;7.40;;
6356;SDS011;3211;53.452;-2.264;2022-09-06T06:56:22;10.33;;;7.53;;
6356;SDS011;3211;53.452;-2.264;2022-09-06T06:59:05;10.03;;;8.17;;
6356;SDS011;3211;53.452;-2.264;2022-09-06T07:01:48;10.30;;;8.03;;
6356;SDS011;3211;53.452;-2.264;2022-09-06T07:04:30;9.17;;;7.70;;
6356;SDS011;3211;53.452;-2.264;2022-09-06T07:07:12;11.90;;;8.07;;
6356;SDS011;3211;53.452;-2.264;2022-09-06T07:09:55;10.10;;;7.10;;
6356;SDS011;3211;53.452;-2.264;2022-09-06T07:12:38;13.13;;;7.20;;
6356;SDS011;3211;53.452;-2.264;2022-09-06T07:15:20;8.03;;;7.17;;
6356;SDS011;3211;53.452;-2.264;2022-09-06T07:18:02;12.10;;;7.50;;
6356;SDS011;3211;53.452;-2.264;2022-09-06T07:20:44;10.90;;;7.57;;
6356;SDS011;3211;53.452;-2.264;2022-09-06T07:23:27;9.90;;;7.53;;
6356;SDS011;3211;53.452;-2.264;2022-09-06T07:26:12;10.50;;;8.07;;
6356;SDS011;3211;53.452;-2.264;2022-09-06T07:28:57;10.60;;;7.80;;
6356;SDS011;3211;53.452;-2.264;2022-09-06T07:31:40;13.70;;;7.30;;
6356;SDS011;3211;53.452;-2.264;2022-09-06T07:34:22;10.57;;;7.60;;
6356;SDS011;3211;53.452;-2.264;2022-09-06T07:37:05;11.30;;;8.40;;
6356;SDS011;3211;53.452;-2.264;2022-09-06T07:39:47;9.10;;;7.60;;
6356;SDS011;3211;53.452;-2.264;2022-09-06T07:42:30;9.63;;;7.67;;
6356;SDS011;3211;53.452;-2.264;2022-09-06T07:45:13;8.70;;;7.40;;
6356;SDS011;3211;53.452;-2.264;2022-09-06T07:47:56;9.00;;;7.90;;
6356;SDS011;3211;53.452;-2.264;2022-09-06T07:50:38;9.00;;;7.40;;
6356;SDS011;3211;53.452;-2.264;2022-09-06T07:53:21;10.50;;;7.73;;
6356;SDS011;3211;53.452;-2.264;2022-09-06T07:56:03;10.63;;;7.03;;
6356;SDS011;3211;53.452;-2.264;2022-09-06T07:58:47;11.60;;;7.30;;
6356;SDS011;3211;53.452;-2.264;2022-09-06T08:01:31;9.33;;;7.20;;
6356;SDS011;3211;53.452;-2.264;2022-09-06T08:04:14;8.60;;;6.73;;
6356;SDS011;3211;53.452;-2.264;2022-09-06T08:06:56;10.37;;;7.33;;
6356;SDS011;3211;53.452;-2.264;2022-09-06T08:09:40;13.67;;;7.57;;
6356;SDS011;3211;53.452;-2.264;2022-09-06T08:12:22;10.67;;;7.43;;
6356;SDS011;3211;53.452;-2.264;2022-09-06T08:15:07;11.97;;;7.60;;
6356;SDS011;3211;53.452;-2.264;2022-09-06T08:17:50;11.90;;;7.97;;
6356;SDS011;3211;53.452;-2.264;2022-09-06T08:20:32;7.93;;;7.00;;
6356;SDS011;3211;53.452;-2.264;2022-09-06T08:23:14;9.07;;;7.60;;
6356;SDS011;3211;53.452;-2.264;2022-09-06T08:25:57;10.50;;;8.33;;
6356;SDS011;3211;53.452;-2.264;2022-09-06T08:28:39;15.17;;;8.77;;
6356;SDS011;3211;53.452;-2.264;2022-09-06T08:31:21;13.97;;;8.40;;
6356;SDS011;3211;53.452;-2.264;2022-09-06T08:34:04;12.40;;;7.87;;
6356;SDS011;3211;53.452;-2.264;2022-09-06T08:36:46;12.80;;;8.83;;
6356;SDS011;3211;53.452;-2.264;2022-09-06T08:39:28;14.47;;;9.50;;
6356;SDS011;3211;53.452;-2.264;2022-09-06T08:42:10;15.27;;;8.93;;
6356;SDS011;3211;53.452;-2.264;2022-09-06T08:44:52;11.60;;;9.00;;
6356;SDS011;3211;53.452;-2.264;2022-09-06T08:47:37;14.03;;;9.57;;
6356;SDS011;3211;53.452;-2.264;2022-09-06T08:50:20;12.17;;;8.50;;
6356;SDS011;3211;53.452;-2.264;2022-09-06T08:53:04;13.97;;;9.70;;
6356;SDS011;3211;53.452;-2.264;2022-09-06T08:55:51;15.40;;;9.70;;
6356;SDS011;3211;53.452;-2.264;2022-09-06T08:58:41;14.50;;;10.07;;
6356;SDS011;3211;53.452;-2.264;2022-09-06T09:01:39;22.40;;;10.60;;
6356;SDS011;3211;53.452;-2.264;2022-09-06T09:04:31;17.33;;;10.33;;
6356;SDS011;3211;53.452;-2.264;2022-09-06T09:07:22;16.63;;;10.80;;
6356;SDS011;3211;53.452;-2.264;2022-09-06T09:10:14;16.37;;;10.23;;
6356;SDS011;3211;53.452;-2.264;2022-09-06T09:13:01;14.63;;;10.37;;
6356;SDS011;3211;53.452;-2.264;2022-09-06T09:15:47;17.97;;;11.23;;
6356;SDS011;3211;53.452;-2.264;2022-09-06T09:18:31;13.87;;;10.43;;
6356;SDS011;3211;53.452;-2.264;2022-09-06T09:21:18;15.47;;;9.77;;
6356;SDS011;3211;53.452;-2.264;2022-09-06T09:24:04;12.70;;;9.37;;
6356;SDS011;3211;53.452;-2.264;2022-09-06T09:26:48;17.23;;;10.10;;
6356;SDS011;3211;53.452;-2.264;2022-09-06T09:29:40;13.30;;;9.40;;
6356;SDS011;3211;53.452;-2.264;2022-09-06T09:32:38;13.90;;;9.03;;
6356;SDS011;3211;53.452;-2.264;2022-09-06T09:35:22;12.37;;;8.97;;
6356;SDS011;3211;53.452;-2.264;2022-09-06T09:38:11;13.70;;;8.90;;
6356;SDS011;3211;53.452;-2.264;2022-09-06T09:41:01;14.17;;;8.57;;
6356;SDS011;3211;53.452;-2.264;2022-09-06T09:43:53;13.67;;;8.10;;
6356;SDS011;3211;53.452;-2.264;2022-09-06T09:46:38;10.73;;;7.63;;
6356;SDS011;3211;53.452;-2.264;2022-09-06T09:49:26;10.03;;;7.10;;
6356;SDS011;3211;53.452;-2.264;2022-09-06T09:52:10;7.90;;;6.77;;
6356;SDS011;3211;53.452;-2.264;2022-09-06T09:54:55;12.40;;;7.53;;
6356;SDS011;3211;53.452;-2.264;2022-09-06T09:57:43;10.97;;;6.80;;
6356;SDS011;3211;53.452;-2.264;2022-09-06T10:00:31;7.73;;;5.80;;
6356;SDS011;3211;53.452;-2.264;2022-09-06T10:03:15;13.10;;;5.77;;
6356;SDS011;3211;53.452;-2.264;2022-09-06T10:05:59;8.03;;;4.50;;
6356;SDS011;3211;53.452;-2.264;2022-09-06T10:08:41;5.97;;;3.80;;
6356;SDS011;3211;53.452;-2.264;2022-09-06T10:11:37;6.07;;;3.67;;
6356;SDS011;3211;53.452;-2.264;2022-09-06T10:14:26;7.17;;;3.53;;
6356;SDS011;3211;53.452;-2.264;2022-09-06T10:17:17;8.00;;;4.20;;
6356;SDS011;3211;53.452;-2.264;2022-09-06T10:20:03;6.27;;;3.70;;
6356;SDS011;3211;53.452;-2.264;2022-09-06T10:22:49;7.10;;;4.80;;
6356;SDS011;3211;53.452;-2.264;2022-09-06T10:25:38;7.90;;;5.30;;
6356;SDS011;3211;53.452;-2.264;2022-09-06T10:28:32;11.93;;;4.97;;
6356;SDS011;3211;53.452;-2.264;2022-09-06T10:34:43;12.20;;;5.83;;
6356;SDS011;3211;53.452;-2.264;2022-09-06T10:37:54;7.10;;;5.53;;
6356;SDS011;3211;53.452;-2.264;2022-09-06T10:40:51;9.10;;;5.30;;
6356;SDS011;3211;53.452;-2.264;2022-09-06T10:43:40;8.23;;;4.80;;
6356;SDS011;3211;53.452;-2.264;2022-09-06T10:46:33;7.30;;;4.63;;
6356;SDS011;3211;53.452;-2.264;2022-09-06T10:49:17;7.90;;;5.47;;
6356;SDS011;3211;53.452;-2.264;2022-09-06T10:52:00;8.70;;;5.63;;
6356;SDS011;3211;53.452;-2.264;2022-09-06T10:54:45;7.77;;;5.10;;
6356;SDS011;3211;53.452;-2.264;2022-09-06T10:57:28;8.07;;;5.80;;
6356;SDS011;3211;53.452;-2.264;2022-09-06T11:00:15;8.37;;;5.60;;
6356;SDS011;3211;53.452;-2.264;2022-09-06T11:02:58;7.90;;;5.30;;
6356;SDS011;3211;53.452;-2.264;2022-09-06T11:05:50;5.57;;;4.40;;
6356;SDS011;3211;53.452;-2.264;2022-09-06T11:08:35;6.60;;;4.20;;
6356;SDS011;3211;53.452;-2.264;2022-09-06T11:11:25;5.70;;;4.77;;
6356;SDS011;3211;53.452;-2.264;2022-09-06T11:14:14;5.43;;;3.97;;
6356;SDS011;3211;53.452;-2.264;2022-09-06T11:17:03;5.37;;;3.63;;
6356;SDS011;3211;53.452;-2.264;2022-09-06T11:19:50;6.07;;;3.90;;
6356;SDS011;3211;53.452;-2.264;2022-09-06T11:22:46;4.23;;;3.27;;
6356;SDS011;3211;53.452;-2.264;2022-09-06T11:29:17;2.63;;;2.43;;
6356;SDS011;3211;53.452;-2.264;2022-09-06T11:32:02;3.20;;;2.60;;
6356;SDS011;3211;53.452;-2.264;2022-09-06T11:35:06;5.30;;;2.53;;
6356;SDS011;3211;53.452;-2.264;2022-09-06T11:37:58;4.13;;;2.50;;
6356;SDS011;3211;53.452;-2.264;2022-09-06T11:40:44;3.17;;;2.17;;
6356;SDS011;3211;53.452;-2.264;2022-09-06T11:43:42;5.80;;;3.33;;
6356;SDS011;3211;53.452;-2.264;2022-09-06T11:49:39;4.87;;;2.40;;
6356;SDS011;3211;53.452;-2.264;2022-09-06T11:55:41;4.27;;;2.00;;
6356;SDS011;3211;53.452;-2.264;2022-09-06T11:58:25;3.50;;;1.90;;
6356;SDS011;3211;53.452;-2.264;2022-09-06T12:04:16;4.63;;;1.87;;
6356;SDS011;3211;53.452;-2.264;2022-09-06T12:07:06;5.67;;;1.77;;
6356;SDS011;3211;53.452;-2.264;2022-09-06T12:09:49;3.80;;;1.83;;
6356;SDS011;3211;53.452;-2.264;2022-09-06T12:12:39;3.67;;;2.13;;
6356;SDS011;3211;53.452;-2.264;2022-09-06T12:15:23;12.27;;;2.50;;
6356;SDS011;3211;53.452;-2.264;2022-09-06T12:18:06;6.53;;;2.30;;
6356;SDS011;3211;53.452;-2.264;2022-09-06T12:21:00;7.40;;;2.23;;
6356;SDS011;3211;53.452;-2.264;2022-09-06T12:23:43;9.77;;;2.93;;
6356;SDS011;3211;53.452;-2.264;2022-09-06T12:29:28;5.17;;;2.50;;
6356;SDS011;3211;53.452;-2.264;2022-09-06T12:32:10;5.57;;;2.37;;
6356;SDS011;3211;53.452;-2.264;2022-09-06T12:34:57;4.97;;;2.13;;
6356;SDS011;3211;53.452;-2.264;2022-09-06T12:37:48;9.37;;;2.50;;
6356;SDS011;3211;53.452;-2.264;2022-09-06T12:40:31;7.07;;;2.30;;
6356;SDS011;3211;53.452;-2.264;2022-09-06T12:43:17;4.67;;;2.23;;
6356;SDS011;3211;53.452;-2.264;2022-09-06T12:46:01;5.20;;;2.20;;
6356;SDS011;3211;53.452;-2.264;2022-09-06T12:48:57;8.83;;;2.13;;
6356;SDS011;3211;53.452;-2.264;2022-09-06T12:51:44;3.30;;;1.97;;
6356;SDS011;3211;53.452;-2.264;2022-09-06T12:54:26;2.60;;;2.07;;
6356;SDS011;3211;53.452;-2.264;2022-09-06T12:57:12;3.93;;;2.10;;
6356;SDS011;3211;53.452;-2.264;2022-09-06T12:59:57;6.10;;;2.43;;
6356;SDS011;3211;53.452;-2.264;2022-09-06T13:02:44;5.17;;;2.47;;
6356;SDS011;3211;53.452;-2.264;2022-09-06T13:05:38;5.07;;;2.50;;
6356;SDS011;3211;53.452;-2.264;2022-09-06T13:08:23;7.53;;;2.33;;
6356;SDS011;3211;53.452;-2.264;2022-09-06T13:11:11;4.20;;;2.00;;
6356;SDS011;3211;53.452;-2.264;2022-09-06T13:13:55;6.77;;;2.00;;
6356;SDS011;3211;53.452;-2.264;2022-09-06T13:16:42;5.43;;;1.73;;
6356;SDS011;3211;53.452;-2.264;2022-09-06T13:19:31;6.00;;;4.43;;
6356;SDS011;3211;53.452;-2.264;2022-09-06T13:25:23;3.27;;;1.77;;
6356;SDS011;3211;53.452;-2.264;2022-09-06T13:28:06;5.13;;;2.17;;
6356;SDS011;3211;53.452;-2.264;2022-09-06T13:30:59;4.13;;;1.53;;
6356;SDS011;3211;53.452;-2.264;2022-09-06T13:33:43;4.23;;;1.80;;
6356;SDS011;3211;53.452;-2.264;2022-09-06T13:36:27;4.90;;;1.87;;
6356;SDS011;3211;53.452;-2.264;2022-09-06T13:39:10;7.03;;;2.20;;
6356;SDS011;3211;53.452;-2.264;2022-09-06T13:42:21;9.00;;;3.27;;
6356;SDS011;3211;53.452;-2.264;2022-09-06T13:45:16;4.03;;;2.03;;
6356;SDS011;3211;53.452;-2.264;2022-09-06T13:48:05;4.43;;;2.00;;
6356;SDS011;3211;53.452;-2.264;2022-09-06T13:50:47;4.63;;;1.97;;
6356;SDS011;3211;53.452;-2.264;2022-09-06T13:53:30;4.00;;;2.17;;
6356;SDS011;3211;53.452;-2.264;2022-09-06T13:56:13;3.60;;;1.90;;
6356;SDS011;3211;53.452;-2.264;2022-09-06T13:58:56;6.03;;;2.03;;
6356;SDS011;3211;53.452;-2.264;2022-09-06T14:01:38;7.63;;;2.83;;
6356;SDS011;3211;53.452;-2.264;2022-09-06T14:04:22;6.77;;;2.43;;
6356;SDS011;3211;53.452;-2.264;2022-09-06T14:07:04;9.10;;;2.80;;
6356;SDS011;3211;53.452;-2.264;2022-09-06T14:09:47;3.27;;;1.90;;
6356;SDS011;3211;53.452;-2.264;2022-09-06T14:12:30;6.10;;;2.20;;
6356;SDS011;3211;53.452;-2.264;2022-09-06T14:15:12;6.27;;;1.90;;
6356;SDS011;3211;53.452;-2.264;2022-09-06T14:17:54;5.23;;;2.07;;
6356;SDS011;3211;53.452;-2.264;2022-09-06T14:20:36;5.37;;;1.70;;
6356;SDS011;3211;53.452;-2.264;2022-09-06T14:23:19;6.40;;;2.00;;
6356;SDS011;3211;53.452;-2.264;2022-09-06T14:26:04;3.67;;;1.70;;
6356;SDS011;3211;53.452;-2.264;2022-09-06T14:28:46;4.00;;;2.00;;
6356;SDS011;3211;53.452;-2.264;2022-09-06T14:31:28;4.10;;;1.80;;
6356;SDS011;3211;53.452;-2.264;2022-09-06T14:34:11;10.50;;;2.70;;
6356;SDS011;3211;53.452;-2.264;2022-09-06T14:36:53;7.70;;;1.90;;
6356;SDS011;3211;53.452;-2.264;2022-09-06T14:39:35;4.87;;;1.90;;
6356;SDS011;3211;53.452;-2.264;2022-09-06T14:42:18;4.03;;;1.80;;
6356;SDS011;3211;53.452;-2.264;2022-09-06T14:45:03;4.93;;;1.70;;
6356;SDS011;3211;53.452;-2.264;2022-09-06T14:47:46;7.77;;;2.20;;
6356;SDS011;3211;53.452;-2.264;2022-09-06T14:50:28;3.50;;;1.90;;
6356;SDS011;3211;53.452;-2.264;2022-09-06T14:53:10;6.13;;;1.90;;
6356;SDS011;3211;53.452;-2.264;2022-09-06T14:55:59;3.40;;;1.70;;
6356;SDS011;3211;53.452;-2.264;2022-09-06T14:58:43;4.37;;;1.50;;
6356;SDS011;3211;53.452;-2.264;2022-09-06T15:01:26;2.83;;;2.03;;
6356;SDS011;3211;53.452;-2.264;2022-09-06T15:04:09;8.07;;;2.00;;
6356;SDS011;3211;53.452;-2.264;2022-09-06T15:06:51;5.00;;;1.50;;
6356;SDS011;3211;53.452;-2.264;2022-09-06T15:09:33;3.00;;;1.70;;
6356;SDS011;3211;53.452;-2.264;2022-09-06T15:12:15;5.13;;;1.70;;
6356;SDS011;3211;53.452;-2.264;2022-09-06T15:14:58;3.30;;;1.67;;
6356;SDS011;3211;53.452;-2.264;2022-09-06T15:17:41;7.37;;;1.70;;
6356;SDS011;3211;53.452;-2.264;2022-09-06T15:20:24;7.17;;;2.03;;
6356;SDS011;3211;53.452;-2.264;2022-09-06T15:23:06;4.23;;;2.30;;
6356;SDS011;3211;53.452;-2.264;2022-09-06T15:25:49;3.80;;;1.70;;
6356;SDS011;3211;53.452;-2.264;2022-09-06T15:28:33;5.60;;;2.03;;
6356;SDS011;3211;53.452;-2.264;2022-09-06T15:31:17;5.27;;;1.73;;
6356;SDS011;3211;53.452;-2.264;2022-09-06T15:34:00;4.67;;;2.10;;
6356;SDS011;3211;53.452;-2.264;2022-09-06T15:36:42;5.90;;;1.80;;
6356;SDS011;3211;53.452;-2.264;2022-09-06T15:39:24;6.07;;;2.43;;
6356;SDS011;3211;53.452;-2.264;2022-09-06T15:42:06;3.83;;;1.60;;
6356;SDS011;3211;53.452;-2.264;2022-09-06T15:44:48;2.30;;;1.50;;
6356;SDS011;3211;53.452;-2.264;2022-09-06T15:47:31;5.67;;;2.13;;
6356;SDS011;3211;53.452;-2.264;2022-09-06T15:50:14;3.83;;;1.50;;
6356;SDS011;3211;53.452;-2.264;2022-09-06T15:52:56;6.17;;;3.13;;
6356;SDS011;3211;53.452;-2.264;2022-09-06T15:55:38;4.37;;;1.70;;
6356;SDS011;3211;53.452;-2.264;2022-09-06T15:58:38;4.67;;;1.80;;
6356;SDS011;3211;53.452;-2.264;2022-09-06T16:01:20;7.83;;;2.23;;
6356;SDS011;3211;53.452;-2.264;2022-09-06T16:04:05;4.73;;;1.80;;
6356;SDS011;3211;53.452;-2.264;2022-09-06T16:06:47;4.67;;;1.80;;
6356;SDS011;3211;53.452;-2.264;2022-09-06T16:09:29;3.90;;;1.60;;
6356;SDS011;3211;53.452;-2.264;2022-09-06T16:12:11;2.90;;;1.50;;
6356;SDS011;3211;53.452;-2.264;2022-09-06T16:14:53;6.77;;;2.33;;
6356;SDS011;3211;53.452;-2.264;2022-09-06T16:17:36;3.50;;;1.70;;
6356;SDS011;3211;53.452;-2.264;2022-09-06T16:20:19;3.30;;;2.13;;
6356;SDS011;3211;53.452;-2.264;2022-09-06T16:23:02;4.63;;;1.80;;
6356;SDS011;3211;53.452;-2.264;2022-09-06T16:25:46;4.50;;;1.97;;
6356;SDS011;3211;53.452;-2.264;2022-09-06T16:28:29;5.80;;;2.03;;
6356;SDS011;3211;53.452;-2.264;2022-09-06T16:31:12;3.20;;;1.80;;
6356;SDS011;3211;53.452;-2.264;2022-09-06T16:33:54;4.43;;;1.80;;
6356;SDS011;3211;53.452;-2.264;2022-09-06T16:36:38;4.87;;;1.50;;
6356;SDS011;3211;53.452;-2.264;2022-09-06T16:39:21;2.60;;;1.60;;
6356;SDS011;3211;53.452;-2.264;2022-09-06T16:42:03;5.17;;;1.77;;
6356;SDS011;3211;53.452;-2.264;2022-09-06T16:44:46;5.00;;;1.80;;
6356;SDS011;3211;53.452;-2.264;2022-09-06T16:47:28;3.83;;;1.80;;
6356;SDS011;3211;53.452;-2.264;2022-09-06T16:50:10;3.37;;;1.53;;
6356;SDS011;3211;53.452;-2.264;2022-09-06T16:52:54;8.90;;;1.93;;
6356;SDS011;3211;53.452;-2.264;2022-09-06T16:55:36;0.90;;;0.80;;
6356;SDS011;3211;53.452;-2.264;2022-09-06T16:58:18;0.90;;;0.80;;
6356;SDS011;3211;53.452;-2.264;2022-09-06T17:01:00;0.80;;;0.80;;
6356;SDS011;3211;53.452;-2.264;2022-09-06T17:03:42;0.90;;;0.80;;
6356;SDS011;3211;53.452;-2.264;2022-09-06T17:06:26;1.00;;;0.80;;
6356;SDS011;3211;53.452;-2.264;2022-09-06T17:09:09;6.50;;;2.27;;